createdAt,value
2018-03-03T00:04:39.445Z,-3.97
2018-03-03T00:09:40.681Z,-4.14
2018-03-03T00:14:41.638Z,-4.18
2018-03-03T00:19:42.602Z,-3.70
2018-03-03T00:24:43.902Z,-3.46
2018-03-03T00:29:44.843Z,-3.44
2018-03-03T00:34:45.765Z,-3.69
2018-03-03T00:39:46.710Z,-3.51
2018-03-03T00:44:47.665Z,-3.32
2018-03-03T00:49:48.615Z,-3.68
2018-03-03T00:54:49.553Z,-3.49
2018-03-03T00:59:50.504Z,-3.35
2018-03-03T01:04:51.441Z,-3.34
2018-03-03T01:09:52.389Z,-3.38
2018-03-03T01:14:53.362Z,-3.51
2018-03-03T01:19:54.284Z,-3.76
2018-03-03T01:24:55.233Z,-3.61
2018-03-03T01:29:56.175Z,-3.55
2018-03-03T01:34:57.091Z,-3.81
2018-03-03T01:39:58.007Z,-3.59
2018-03-03T01:44:58.916Z,-3.52
2018-03-03T01:49:59.851Z,-4.34
2018-03-03T01:55:00.802Z,-3.99
2018-03-03T02:00:01.737Z,-3.78
2018-03-03T02:05:02.689Z,-3.68
2018-03-03T02:10:03.617Z,-3.55
2018-03-03T02:15:04.594Z,-3.68
2018-03-03T02:20:05.525Z,-3.59
2018-03-03T02:25:06.477Z,-3.55
2018-03-03T02:30:07.434Z,-3.50
2018-03-03T02:35:08.349Z,-3.54
2018-03-03T02:40:09.287Z,-3.75
2018-03-03T02:45:10.236Z,-3.82
2018-03-03T02:50:11.170Z,-3.78
2018-03-03T02:55:12.557Z,-3.65
2018-03-03T03:00:13.520Z,-4.04
2018-03-03T03:05:14.457Z,-4.89
2018-03-03T03:10:15.396Z,-4.28
2018-03-03T03:15:16.341Z,-3.99
2018-03-03T03:20:17.295Z,-3.82
2018-03-03T03:25:18.262Z,-3.93
2018-03-03T03:30:19.189Z,-4.04
2018-03-03T03:35:20.133Z,-4.79
2018-03-03T03:40:21.052Z,-4.63
2018-03-03T03:45:21.980Z,-4.26
2018-03-03T03:50:22.893Z,-4.07
2018-03-03T03:55:23.909Z,-4.52
2018-03-03T04:00:24.837Z,-4.24
2018-03-03T04:05:25.755Z,-4.24
2018-03-03T04:10:26.712Z,-4.56
2018-03-03T04:15:27.640Z,-5.21
2018-03-03T04:20:28.594Z,-4.53
2018-03-03T04:25:29.576Z,-4.71
2018-03-03T04:30:30.549Z,-4.62
2018-03-03T04:35:31.898Z,-4.51
2018-03-03T04:40:32.829Z,-5.13
2018-03-03T04:45:33.770Z,-4.53
2018-03-03T04:50:34.708Z,-4.70
2018-03-03T04:55:35.662Z,-4.90
2018-03-03T05:00:48.509Z,-5.25
2018-03-03T05:05:53.360Z,-4.65
2018-03-03T05:10:55.186Z,-4.72
2018-03-03T05:21:40.126Z,-4.66
2018-03-03T05:32:24.217Z,-4.57
2018-03-03T05:37:28.109Z,-4.81
2018-03-03T05:48:10.779Z,-4.64
2018-03-03T05:53:17.726Z,-4.85
2018-03-03T06:04:12.017Z,-4.45
2018-03-03T06:09:16.004Z,-4.41
2018-03-03T06:14:17.007Z,-4.67
2018-03-03T06:19:17.942Z,-4.54
2018-03-03T06:24:18.868Z,-4.79
2018-03-03T06:29:19.816Z,-5.11
2018-03-03T06:34:20.753Z,-4.81
2018-03-03T06:39:21.687Z,-4.73
2018-03-03T06:44:22.588Z,-4.73
2018-03-03T06:49:23.536Z,-4.63
2018-03-03T06:54:24.525Z,-4.38
2018-03-03T06:59:25.490Z,-4.30
2018-03-03T07:04:26.441Z,-4.64
2018-03-03T07:09:27.360Z,-4.45
2018-03-03T07:14:30.196Z,-3.98
2018-03-03T07:19:31.167Z,-4.20
2018-03-03T07:24:32.137Z,-4.67
2018-03-03T07:29:33.105Z,-4.03
2018-03-03T07:34:34.059Z,-3.88
2018-03-03T07:39:34.968Z,-3.80
2018-03-03T07:44:35.918Z,-3.74
2018-03-03T07:49:36.841Z,-3.70
2018-03-03T07:54:37.790Z,-4.11
2018-03-03T07:59:38.730Z,-3.73
2018-03-03T08:04:39.684Z,-3.86
2018-03-03T08:09:40.645Z,-3.74
2018-03-03T08:14:41.632Z,-3.04
2018-03-03T08:19:42.580Z,-3.44
2018-03-03T08:24:43.546Z,-2.92
2018-03-03T08:29:44.540Z,-2.88
2018-03-03T08:34:45.470Z,-2.87
2018-03-03T08:39:46.416Z,-2.47
2018-03-03T08:44:47.374Z,-2.92
2018-03-03T08:49:48.307Z,-2.45
2018-03-03T08:54:49.217Z,-2.33
2018-03-03T08:59:50.166Z,-2.42
2018-03-03T09:04:51.159Z,-2.20
2018-03-03T09:09:59.167Z,-1.58
2018-03-03T09:15:00.116Z,-2.16
2018-03-03T09:20:01.050Z,-1.41
2018-03-03T09:25:01.994Z,-1.08
2018-03-03T09:30:02.990Z,-0.47
2018-03-03T09:35:03.919Z,-0.67
2018-03-03T09:40:04.894Z,-0.65
2018-03-03T09:45:05.820Z,-0.27
2018-03-03T09:50:06.779Z,-0.83
2018-03-03T09:55:07.719Z,-0.79
2018-03-03T10:00:08.676Z,-0.78
2018-03-03T10:05:09.650Z,-0.05
2018-03-03T10:10:10.636Z,-0.30
2018-03-03T10:15:11.582Z,-0.44
2018-03-03T10:20:12.552Z,-0.67
2018-03-03T10:25:13.510Z,0.40
2018-03-03T10:30:14.493Z,0.39
2018-03-03T10:35:15.440Z,-0.48
2018-03-03T10:40:16.797Z,-0.66
2018-03-03T10:45:17.754Z,0.73
2018-03-03T10:50:18.731Z,0.49
2018-03-03T10:55:19.662Z,0.75
2018-03-03T11:00:26.622Z,1.50
2018-03-03T11:05:27.639Z,1.74
2018-03-03T11:10:28.641Z,1.25
2018-03-03T11:15:29.618Z,1.71
2018-03-03T11:20:30.593Z,1.86
2018-03-03T11:25:31.559Z,1.99
2018-03-03T11:30:32.552Z,2.78
2018-03-03T11:35:33.524Z,2.44
2018-03-03T11:40:34.531Z,2.44
2018-03-03T11:45:35.466Z,3.17
2018-03-03T11:50:36.431Z,2.25
2018-03-03T11:55:37.387Z,2.58
2018-03-03T12:00:38.361Z,3.80
2018-03-03T12:05:39.345Z,3.02
2018-03-03T12:10:40.292Z,3.83
2018-03-03T12:15:41.255Z,4.05
2018-03-03T12:20:42.207Z,4.04
2018-03-03T12:25:43.174Z,5.12
2018-03-03T12:30:44.190Z,5.75
2018-03-03T12:35:45.176Z,4.54
2018-03-03T12:40:46.109Z,5.38
2018-03-03T12:45:47.082Z,5.41
2018-03-03T12:50:48.042Z,5.02
2018-03-03T12:55:48.979Z,5.83
2018-03-03T13:00:49.917Z,5.35
2018-03-03T13:05:50.971Z,5.66
2018-03-03T13:10:51.954Z,5.78
2018-03-03T13:15:52.944Z,4.67
2018-03-03T13:20:53.946Z,4.95
2018-03-03T13:25:54.914Z,6.03
2018-03-03T13:30:55.918Z,5.59
2018-03-03T13:35:56.865Z,5.45
2018-03-03T13:40:57.814Z,5.92
2018-03-03T13:45:58.774Z,5.58
2018-03-03T13:50:59.717Z,6.81
2018-03-03T13:56:00.640Z,6.71
2018-03-03T14:01:01.617Z,5.51
2018-03-03T14:06:02.581Z,5.69
2018-03-03T14:11:03.540Z,5.54
2018-03-03T14:16:04.493Z,6.26
2018-03-03T14:21:05.463Z,5.99
2018-03-03T14:26:06.439Z,5.68
2018-03-03T14:31:07.441Z,5.59
2018-03-03T14:36:08.424Z,5.34
2018-03-03T14:41:09.382Z,6.10
2018-03-03T14:46:10.360Z,6.96
2018-03-03T14:51:11.318Z,7.43
2018-03-03T14:56:12.291Z,7.04
2018-03-03T15:01:13.237Z,6.69
2018-03-03T15:06:14.216Z,7.00
2018-03-03T15:11:15.213Z,6.27
2018-03-03T15:16:16.178Z,5.93
2018-03-03T15:21:17.193Z,4.99
2018-03-03T15:26:18.206Z,3.57
2018-03-03T15:31:19.224Z,2.89
2018-03-03T15:36:20.472Z,2.19
2018-03-03T15:41:21.435Z,2.60
2018-03-03T15:46:22.441Z,2.29
2018-03-03T15:51:23.424Z,2.08
2018-03-03T15:56:24.381Z,2.21
2018-03-03T16:01:25.339Z,2.71
2018-03-03T16:06:26.305Z,2.82
2018-03-03T16:11:27.327Z,1.86
2018-03-03T16:16:28.322Z,1.68
2018-03-03T16:21:29.313Z,0.69
2018-03-03T16:26:30.364Z,0.60
2018-03-03T16:31:31.361Z,1.07
2018-03-03T16:36:32.351Z,0.87
2018-03-03T16:41:33.296Z,0.64
2018-03-03T16:46:34.257Z,0.04
2018-03-03T16:51:35.208Z,0.00
2018-03-03T16:56:36.218Z,-0.91
2018-03-03T17:01:37.193Z,-0.19
2018-03-03T17:06:38.212Z,0.30
2018-03-03T17:11:39.151Z,-0.23
2018-03-03T17:16:40.128Z,-0.28
2018-03-03T17:21:41.124Z,0.07
2018-03-03T17:26:42.103Z,-0.71
2018-03-03T17:31:43.095Z,-0.68
2018-03-03T17:36:44.046Z,-0.55
2018-03-03T17:41:45.017Z,-0.03
2018-03-03T17:46:45.998Z,-0.64
2018-03-03T17:51:47.329Z,-0.81
2018-03-03T17:56:48.258Z,-0.49
2018-03-03T18:01:49.196Z,-0.64
2018-03-03T18:06:50.133Z,-1.32
2018-03-03T18:11:58.237Z,-1.01
2018-03-03T18:16:59.169Z,-0.84
2018-03-03T18:22:00.177Z,-0.71
2018-03-03T18:27:01.138Z,-0.67
2018-03-03T18:32:02.155Z,-1.16
2018-03-03T18:37:03.096Z,-0.69
2018-03-03T18:42:04.094Z,-0.48
2018-03-03T18:47:05.067Z,-0.66
2018-03-03T18:52:06.037Z,-1.05
2018-03-03T18:57:07.006Z,-0.65
2018-03-03T19:02:07.961Z,-0.70
2018-03-03T19:07:08.907Z,-0.66
2018-03-03T19:12:09.885Z,-0.96
2018-03-03T19:17:10.844Z,-0.73
2018-03-03T19:22:11.811Z,-0.74
2018-03-03T19:27:12.785Z,-0.67
2018-03-03T19:32:13.773Z,-0.51
2018-03-03T19:37:14.723Z,-0.27
2018-03-03T19:42:15.706Z,-0.58
2018-03-03T19:47:16.688Z,-0.69
2018-03-03T19:52:17.671Z,-0.25
2018-03-03T19:57:18.647Z,-0.39
2018-03-03T20:02:19.607Z,-0.32
2018-03-03T20:07:20.578Z,-0.37
2018-03-03T20:12:21.564Z,-0.63
2018-03-03T20:17:22.531Z,-0.62
2018-03-03T20:22:23.522Z,-0.47
2018-03-03T20:27:24.516Z,-1.23
2018-03-03T20:32:25.537Z,-1.06
2018-03-03T20:37:26.519Z,-0.74
2018-03-03T20:42:27.498Z,-0.84
2018-03-03T20:47:28.456Z,-0.93
2018-03-03T20:52:29.412Z,-0.95
2018-03-03T20:57:30.365Z,-0.96
2018-03-03T21:02:31.312Z,-0.79
2018-03-03T21:07:32.291Z,-0.74
2018-03-03T21:12:37.158Z,-1.22
2018-03-03T21:17:38.117Z,-1.06
2018-03-03T21:22:39.167Z,-0.95
2018-03-03T21:27:40.131Z,-1.02
2018-03-03T21:32:41.119Z,-0.74
2018-03-03T21:37:42.061Z,-0.83
2018-03-03T21:42:43.060Z,-0.85
2018-03-03T21:47:44.002Z,-1.15
2018-03-03T21:52:44.963Z,-1.08
2018-03-03T21:57:45.885Z,-1.02
2018-03-03T22:02:46.857Z,-1.22
2018-03-03T22:07:47.804Z,-1.41
2018-03-03T22:12:48.790Z,-1.45
2018-03-03T22:17:49.755Z,-1.27
2018-03-03T22:22:50.718Z,-1.31
2018-03-03T22:27:51.771Z,-1.29
2018-03-03T22:32:52.761Z,-1.21
2018-03-03T22:37:53.704Z,-1.76
2018-03-03T22:42:54.638Z,-1.23
2018-03-03T22:47:55.945Z,-1.20
2018-03-03T22:52:56.897Z,-1.30
2018-03-03T22:57:57.824Z,-1.11
2018-03-03T23:02:58.782Z,-1.22
2018-03-03T23:07:59.717Z,-1.11
2018-03-03T23:13:00.673Z,-1.40
2018-03-03T23:18:01.629Z,-1.19
2018-03-03T23:23:02.599Z,-1.08
2018-03-03T23:28:03.563Z,-1.04
2018-03-03T23:33:04.543Z,-1.20
2018-03-03T23:38:05.474Z,-1.21
2018-03-03T23:43:06.849Z,-1.03
2018-03-03T23:48:07.774Z,-1.15
2018-03-03T23:53:08.705Z,-1.19
2018-03-03T23:58:09.669Z,-1.19
